Time;durP1;ratioP1;P1;durP2;ratioP2;P2;SDS_P1;SDS_P2;PMS_P1;PMS_P2;Temp;Humidity;BMP_temperature;BMP_pressure;BME280_temperature;BME280_humidity;BME280_pressure;Samples;Min_cycle;Max_cycle;Signal;HPM_P1;HPM_P2
2022/07/20 00:00:07;;;;;;;7.05;5.07;;;;;;;23.93;41.47;101157.09;5024823;28;20053;-75
2022/07/20 00:02:34;;;;;;;8.07;4.50;;;;;;;23.90;41.71;101160.94;5009717;28;20137;-74
2022/07/20 00:05:01;;;;;;;9.65;4.75;;;;;;;23.87;42.59;101160.47;5008321;28;20140;-75
2022/07/20 00:07:29;;;;;;;6.28;4.72;;;;;;;23.84;41.97;101163.47;5022131;28;20041;-76
2022/07/20 00:12:42;;;;;;;6.40;4.53;;;;;;;23.77;42.50;101165.09;5027766;28;20059;-75
2022/07/20 00:15:09;;;;;;;8.93;4.18;;;;;;;23.71;42.71;101167.44;5029334;28;20168;-75
2022/07/20 00:17:36;;;;;;;6.88;4.78;;;;;;;23.67;42.66;101166.09;4996259;28;20432;-76
2022/07/20 00:20:04;;;;;;;8.63;4.70;;;;;;;23.64;42.49;101165.53;5026454;28;20053;-76
2022/07/20 00:22:31;;;;;;;9.43;4.70;;;;;;;23.60;42.88;101169.56;5021497;28;20461;-75
2022/07/20 00:24:58;;;;;;;8.52;5.07;;;;;;;23.58;43.25;101167.03;5011001;28;20041;-74
2022/07/20 00:27:25;;;;;;;7.57;4.57;;;;;;;23.55;42.94;101171.88;5044106;28;20054;-75
2022/07/20 00:29:52;;;;;;;11.10;4.65;;;;;;;23.51;43.19;101168.69;5015159;28;20533;-75
2022/07/20 00:32:19;;;;;;;7.57;5.32;;;;;;;23.47;43.38;101159.28;5008673;28;20155;-75
2022/07/20 00:34:47;;;;;;;7.75;5.18;;;;;;;23.45;43.55;101163.94;5023668;28;20042;-75
2022/07/20 00:37:14;;;;;;;9.00;5.20;;;;;;;23.41;43.56;101160.72;5008532;28;20189;-75
2022/07/20 00:39:41;;;;;;;6.60;4.50;;;;;;;23.36;43.19;101149.63;5008199;28;20072;-75
2022/07/20 00:42:08;;;;;;;10.25;5.28;;;;;;;23.34;43.42;101156.19;5039812;28;20124;-74
2022/07/20 00:44:35;;;;;;;9.05;4.82;;;;;;;23.33;43.62;101151.81;5027359;28;20064;-75
2022/07/20 00:47:03;;;;;;;6.63;4.57;;;;;;;23.28;44.21;101149.63;5010719;28;20053;-75
2022/07/20 00:49:30;;;;;;;20.92;4.80;;;;;;;23.24;44.00;101149.09;5023993;28;20599;-76
2022/07/20 00:51:57;;;;;;;9.23;4.65;;;;;;;23.21;44.32;101145.88;5018472;28;20500;-76
2022/07/20 00:54:24;;;;;;;8.00;4.72;;;;;;;23.17;43.94;101148.03;5012284;28;20056;-76
2022/07/20 00:56:51;;;;;;;8.55;5.50;;;;;;;23.14;44.07;101142.13;5026164;28;20071;-76
2022/07/20 00:59:19;;;;;;;8.80;4.82;;;;;;;23.08;44.45;101143.63;5027722;28;20057;-75
2022/07/20 01:01:46;;;;;;;6.35;5.15;;;;;;;23.07;44.32;101141.94;5026354;28;20049;-75
2022/07/20 01:04:13;;;;;;;9.20;4.95;;;;;;;23.04;44.76;101142.25;5028312;28;20158;-75
2022/07/20 01:06:40;;;;;;;7.10;4.53;;;;;;;22.99;44.53;101134.66;5022052;28;20512;-76
2022/07/20 01:09:08;;;;;;;5.72;4.28;;;;;;;22.97;44.58;101136.69;5024415;28;20068;-75
2022/07/20 01:11:35;;;;;;;8.60;5.72;;;;;;;22.94;45.11;101126.25;5022631;28;20053;-75
2022/07/20 01:14:04;;;;;;;10.00;5.28;;;;;;;22.92;44.71;101130.09;5008325;28;20050;-75
2022/07/20 01:16:31;;;;;;;10.20;5.68;;;;;;;22.90;44.88;101121.34;5006597;28;20045;-75
2022/07/20 01:18:59;;;;;;;10.50;5.65;;;;;;;22.86;44.82;101118.09;4991639;28;20045;-75
2022/07/20 01:21:26;;;;;;;8.70;4.78;;;;;;;22.84;44.64;101112.06;5035290;28;20048;-75
2022/07/20 01:23:54;;;;;;;7.68;5.10;;;;;;;22.81;44.53;101108.84;5014020;28;20048;-75
2022/07/20 01:26:21;;;;;;;10.85;5.53;;;;;;;22.78;44.97;101112.69;5038995;28;20049;-74
2022/07/20 01:28:48;;;;;;;9.98;5.65;;;;;;;22.77;45.40;101116.38;5032589;28;20060;-75
2022/07/20 01:31:16;;;;;;;6.97;4.95;;;;;;;22.75;45.22;101124.59;5018121;28;20405;-74
2022/07/20 01:33:43;;;;;;;8.07;4.97;;;;;;;22.74;45.83;101122.09;5007970;28;20046;-75
2022/07/20 01:36:10;;;;;;;7.75;5.20;;;;;;;22.71;45.13;101127.75;5006723;28;20045;-75
2022/07/20 01:38:37;;;;;;;9.10;5.35;;;;;;;22.70;45.35;101126.06;5007922;28;20419;-75
2022/07/20 01:41:06;;;;;;;9.05;5.55;;;;;;;22.67;45.96;101126.38;5014951;28;20117;-76
2022/07/20 01:43:33;;;;;;;6.63;5.30;;;;;;;22.64;45.59;101122.16;5026878;28;20586;-74
2022/07/20 01:46:00;;;;;;;8.85;5.43;;;;;;;22.61;45.67;101119.81;5028017;28;20041;-75
2022/07/20 01:48:27;;;;;;;12.95;6.13;;;;;;;22.60;45.67;101117.25;5008050;28;20054;-75
2022/07/20 01:50:54;;;;;;;7.15;4.72;;;;;;;22.58;45.53;101121.94;5019499;28;20046;-76
2022/07/20 01:53:22;;;;;;;8.90;5.30;;;;;;;22.56;45.65;101129.28;5013814;28;20098;-75
2022/07/20 01:55:51;;;;;;;7.68;4.70;;;;;;;22.54;45.97;101125.94;5010068;28;20079;-74
2022/07/20 01:58:19;;;;;;;6.28;4.63;;;;;;;22.52;46.11;101126.09;5026595;28;20056;-75
2022/07/20 02:00:48;;;;;;;10.73;5.50;;;;;;;22.49;46.00;101124.56;5042987;28;20057;-74
2022/07/20 02:03:16;;;;;;;11.98;5.18;;;;;;;22.47;46.02;101117.69;5027858;28;20573;-75
2022/07/20 02:05:44;;;;;;;8.02;5.55;;;;;;;22.44;46.10;101118.81;5019582;28;20050;-75
2022/07/20 02:08:11;;;;;;;7.28;4.93;;;;;;;22.39;45.94;101113.09;5009424;28;20057;-75
2022/07/20 02:10:38;;;;;;;8.63;5.75;;;;;;;22.37;46.37;101108.88;5007716;28;20853;-75
2022/07/20 02:13:06;;;;;;;10.30;5.90;;;;;;;22.34;46.42;101106.50;5014687;28;20054;-75
2022/07/20 02:18:18;;;;;;;;;;;;;;;22.29;46.91;101101.63;5025243;28;20048;-75
2022/07/20 02:20:45;;;;;;;8.52;5.78;;;;;;;22.27;47.11;101100.91;5010988;28;19940;-77
2022/07/20 02:23:13;;;;;;;7.00;4.97;;;;;;;22.23;47.06;101099.53;4997020;28;20064;-76
2022/07/20 02:25:40;;;;;;;11.70;5.68;;;;;;;22.19;46.84;101092.78;5030157;28;20063;-75
2022/07/20 02:28:08;;;;;;;10.52;5.18;;;;;;;22.18;46.83;101101.84;5037999;28;20049;-75
2022/07/20 02:30:40;;;;;;;8.30;5.15;;;;;;;22.16;47.28;101098.47;5020351;28;20056;-75
2022/07/20 02:33:10;;;;;;;10.43;5.20;;;;;;;22.13;46.92;101102.31;5007990;28;20510;-75
2022/07/20 02:35:37;;;;;;;7.82;5.03;;;;;;;22.09;46.82;101098.22;4990081;28;20046;-75
2022/07/20 02:38:05;;;;;;;11.32;5.55;;;;;;;22.08;46.57;101095.69;4990980;28;20053;-75
2022/07/20 02:40:32;;;;;;;8.45;5.38;;;;;;;22.05;46.66;101101.34;5007967;28;20050;-74
2022/07/20 02:42:59;;;;;;;14.63;6.53;;;;;;;22.02;47.16;101101.66;5027935;28;20061;-75
2022/07/20 02:45:26;;;;;;;9.02;5.60;;;;;;;21.99;47.24;101098.28;5047698;28;20136;-74
2022/07/20 02:47:54;;;;;;;7.95;6.15;;;;;;;21.98;47.13;101098.44;5031264;28;20076;-75
2022/07/20 02:50:21;;;;;;;12.15;6.30;;;;;;;21.96;47.67;101103.09;5025178;28;20143;-75
2022/07/20 02:52:48;;;;;;;8.30;5.65;;;;;;;21.94;47.59;101102.44;5030648;28;20606;-75
2022/07/20 02:55:16;;;;;;;7.50;5.53;;;;;;;21.92;47.51;101102.56;5007994;28;20049;-75
2022/07/20 02:57:43;;;;;;;15.85;6.07;;;;;;;21.90;47.72;101104.56;5011323;28;20061;-75
2022/07/20 03:00:10;;;;;;;12.95;5.82;;;;;;;21.87;47.67;101104.88;5008788;28;20053;-75
2022/07/20 03:02:38;;;;;;;12.57;6.47;;;;;;;21.85;48.11;101096.13;5010348;28;20048;-77
2022/07/20 03:05:05;;;;;;;7.90;5.43;;;;;;;21.83;48.03;101098.13;5008342;28;20326;-77
2022/07/20 03:07:33;;;;;;;10.63;5.97;;;;;;;21.79;48.83;101091.38;5009904;28;20046;-77
2022/07/20 03:10:00;;;;;;;9.48;6.15;;;;;;;21.76;48.20;101096.22;5013283;28;20997;-77
2022/07/20 03:12:27;;;;;;;8.35;6.30;;;;;;;21.76;47.87;101104.25;5024784;28;20065;-77
2022/07/20 03:14:54;;;;;;;8.98;5.95;;;;;;;21.74;48.70;101104.38;5011084;28;20045;-77
2022/07/20 03:17:21;;;;;;;8.07;6.00;;;;;;;21.72;48.51;101101.88;4996943;28;20057;-77
2022/07/20 03:19:48;;;;;;;6.60;5.90;;;;;;;21.71;48.58;101102.88;5023353;28;20042;-77
2022/07/20 03:22:16;;;;;;;8.73;5.75;;;;;;;21.69;49.44;101110.19;5023301;28;20144;-77
2022/07/20 03:24:43;;;;;;;9.13;6.30;;;;;;;21.68;49.15;101105.00;5027799;28;20384;-77
2022/07/20 03:27:10;;;;;;;8.43;5.95;;;;;;;21.66;48.95;101113.19;5027397;28;20159;-76
2022/07/20 03:29:38;;;;;;;9.27;5.78;;;;;;;21.66;49.19;101117.69;5048863;28;20033;-78
2022/07/20 03:32:05;;;;;;;8.93;5.38;;;;;;;21.65;49.16;101116.00;5017824;28;20193;-77
2022/07/20 03:34:32;;;;;;;6.63;5.45;;;;;;;21.63;49.41;101118.00;5016272;28;20144;-77
2022/07/20 03:36:59;;;;;;;9.35;6.15;;;;;;;21.63;49.23;101118.84;5016084;28;20040;-76
2022/07/20 03:39:27;;;;;;;10.18;6.40;;;;;;;21.62;49.75;101114.50;5039828;28;20056;-77
2022/07/20 03:41:54;;;;;;;12.45;5.88;;;;;;;21.61;49.84;101123.50;5039784;28;20045;-77
2022/07/20 03:44:21;;;;;;;8.05;6.47;;;;;;;21.61;49.57;101118.13;5036494;28;20487;-77
2022/07/20 03:46:48;;;;;;;9.13;6.13;;;;;;;21.61;49.34;101120.81;5012953;28;20663;-76
2022/07/20 03:49:15;;;;;;;8.90;5.90;;;;;;;21.62;50.00;101119.00;5018635;28;20072;-77
2022/07/20 03:51:43;;;;;;;8.13;6.03;;;;;;;21.63;49.71;101123.38;5031201;28;20054;-76
2022/07/20 03:54:10;;;;;;;8.75;6.78;;;;;;;21.63;49.48;101121.53;5006880;28;20067;-77
2022/07/20 03:56:40;;;;;;;12.77;6.38;;;;;;;21.64;49.34;101125.03;5030387;28;20535;-77
2022/07/20 03:59:09;;;;;;;7.93;5.40;;;;;;;21.66;49.95;101125.72;5036661;28;20503;-77
2022/07/20 04:01:36;;;;;;;8.48;5.65;;;;;;;21.66;49.47;101126.59;5010828;28;20412;-77
2022/07/20 04:04:04;;;;;;;8.88;5.90;;;;;;;21.68;49.64;101137.16;5020529;28;20041;-77
2022/07/20 04:06:32;;;;;;;11.18;6.22;;;;;;;21.69;49.53;101128.94;5011585;28;20059;-76
2022/07/20 04:08:59;;;;;;;13.35;6.80;;;;;;;21.71;49.66;101127.00;5019337;28;20061;-77
2022/07/20 04:11:26;;;;;;;9.32;6.28;;;;;;;21.74;49.28;101134.69;5026136;28;20409;-78
2022/07/20 04:13:54;;;;;;;11.40;6.30;;;;;;;21.76;49.55;101129.22;5035764;28;20393;-77
2022/07/20 04:16:21;;;;;;;7.75;6.13;;;;;;;21.81;49.78;101134.13;5013447;28;20041;-77
2022/07/20 04:18:49;;;;;;;8.90;6.43;;;;;;;21.84;49.74;101131.13;5019962;28;20535;-76
2022/07/20 04:21:16;;;;;;;8.48;6.03;;;;;;;21.86;49.56;101129.97;5031329;28;20068;-78
2022/07/20 04:23:44;;;;;;;11.25;6.97;;;;;;;21.88;49.54;101127.97;5036751;28;20419;-76
2022/07/20 04:26:11;;;;;;;7.13;5.63;;;;;;;21.93;49.56;101130.22;5037939;28;20057;-77
2022/07/20 04:28:39;;;;;;;9.02;7.07;;;;;;;21.96;49.04;101132.59;5033237;28;20117;-76
2022/07/20 04:31:06;;;;;;;8.00;6.47;;;;;;;22.01;49.47;101130.28;5026963;28;20398;-76
2022/07/20 04:33:33;;;;;;;9.48;5.75;;;;;;;22.04;49.42;101123.81;5016987;28;20048;-77
2022/07/20 04:36:00;;;;;;;11.57;6.05;;;;;;;22.06;49.31;101130.69;5034703;28;20453;-77
2022/07/20 04:38:27;;;;;;;9.93;6.22;;;;;;;22.11;48.88;101133.78;5012481;28;20069;-77
2022/07/20 04:40:55;;;;;;;8.15;6.30;;;;;;;22.15;49.09;101134.31;5030996;28;20051;-76
2022/07/20 04:43:23;;;;;;;15.15;6.45;;;;;;;22.18;49.10;101142.06;5034771;28;20041;-77
2022/07/20 04:45:50;;;;;;;10.23;6.70;;;;;;;22.21;49.37;101134.56;5036766;28;20045;-76
2022/07/20 04:48:24;;;;;;;13.38;7.03;;;;;;;22.27;49.23;101132.25;5032203;28;20381;-76
2022/07/20 04:50:51;;;;;;;8.98;7.38;;;;;;;22.28;49.29;101129.41;5035985;28;20046;-77
2022/07/20 04:53:18;;;;;;;13.98;7.32;;;;;;;22.30;49.31;101132.78;5041041;28;20048;-77
2022/07/20 04:55:45;;;;;;;13.50;7.32;;;;;;;22.34;49.29;101127.97;5005848;28;20041;-77
2022/07/20 04:58:13;;;;;;;16.42;6.75;;;;;;;22.36;48.89;101134.00;5034261;28;20284;-76
2022/07/20 05:00:40;;;;;;;12.65;6.78;;;;;;;22.41;48.63;101137.06;5031256;28;20058;-77
2022/07/20 05:03:07;;;;;;;9.93;6.80;;;;;;;22.49;48.96;101131.78;5032784;28;20053;-77
2022/07/20 05:05:35;;;;;;;13.07;7.50;;;;;;;22.53;48.21;101133.16;5044138;28;20068;-77
2022/07/20 05:08:02;;;;;;;23.42;7.13;;;;;;;22.57;48.52;101131.84;5028190;28;20053;-77
2022/07/20 05:10:30;;;;;;;10.85;7.22;;;;;;;22.64;48.13;101135.56;5014663;28;20041;-77
2022/07/20 05:13:00;;;;;;;15.60;6.78;;;;;;;22.68;47.73;101136.94;5012989;28;20574;-78
2022/07/20 05:15:27;;;;;;;14.40;7.28;;;;;;;22.74;47.80;101138.19;5035327;28;20037;-77
2022/07/20 05:17:55;;;;;;;14.65;7.05;;;;;;;22.81;47.73;101141.06;5014642;28;20045;-77
2022/07/20 05:20:22;;;;;;;12.07;6.68;;;;;;;22.86;47.38;101136.06;5023784;28;20054;-77
2022/07/20 05:22:49;;;;;;;16.63;7.05;;;;;;;22.90;47.75;101137.47;5015578;28;20046;-76
2022/07/20 05:25:16;;;;;;;12.27;7.53;;;;;;;22.91;47.53;101131.94;5022425;28;20045;-76
2022/07/20 05:27:43;;;;;;;12.15;6.55;;;;;;;22.96;47.39;101142.19;4993807;28;20399;-76
2022/07/20 05:30:11;;;;;;;17.35;7.53;;;;;;;23.03;47.52;101140.56;5044482;28;20065;-76
2022/07/20 05:32:38;;;;;;;20.45;7.22;;;;;;;23.10;46.94;101143.44;5012596;28;21175;-77
2022/07/20 05:35:06;;;;;;;18.95;7.05;;;;;;;23.15;47.13;101150.06;4995031;28;20287;-78
2022/07/20 05:37:33;;;;;;;17.48;7.53;;;;;;;23.20;46.93;101147.72;5019293;28;20117;-78
2022/07/20 05:40:01;;;;;;;10.70;7.00;;;;;;;23.26;46.86;101151.59;5032693;28;20049;-77
2022/07/20 05:42:28;;;;;;;24.77;7.75;;;;;;;23.34;46.48;101156.19;5019305;28;20089;-77
2022/07/20 05:44:55;;;;;;;12.93;6.63;;;;;;;23.42;46.81;101157.06;5035397;28;20140;-77
2022/07/20 05:47:22;;;;;;;11.27;6.78;;;;;;;23.49;46.42;101158.09;5014135;28;20381;-77
2022/07/20 05:49:50;;;;;;;12.68;7.72;;;;;;;23.60;46.22;101165.03;5031677;28;20045;-78
2022/07/20 05:52:18;;;;;;;11.65;7.47;;;;;;;23.66;45.76;101158.19;5034552;28;20149;-77
2022/07/20 05:54:45;;;;;;;9.65;6.78;;;;;;;23.74;45.80;101161.75;5033963;28;20491;-77
2022/07/20 05:57:12;;;;;;;11.32;7.20;;;;;;;23.80;45.32;101160.25;5017924;28;20136;-78
2022/07/20 05:59:40;;;;;;;9.90;6.40;;;;;;;23.88;45.67;101154.06;5015279;28;20056;-77
2022/07/20 06:02:08;;;;;;;16.15;7.22;;;;;;;23.98;45.49;101158.28;5024424;28;20045;-77
2022/07/20 06:04:36;;;;;;;12.05;6.70;;;;;;;24.02;45.50;101163.34;5041522;28;20118;-75
2022/07/20 06:07:03;;;;;;;13.32;7.20;;;;;;;24.12;45.12;101158.66;5013772;28;20072;-75
2022/07/20 06:09:30;;;;;;;14.27;7.82;;;;;;;24.18;45.37;101158.84;5044400;28;20052;-75
2022/07/20 06:11:58;;;;;;;13.18;7.45;;;;;;;24.28;44.97;101157.84;5014884;28;20045;-75
2022/07/20 06:14:25;;;;;;;14.30;7.38;;;;;;;24.35;44.92;101165.06;5013957;28;20049;-75
2022/07/20 06:16:52;;;;;;;12.20;7.15;;;;;;;24.45;44.86;101168.47;5033905;28;20037;-75
2022/07/20 06:19:20;;;;;;;11.35;6.72;;;;;;;24.53;44.83;101164.94;5027154;28;20053;-75
2022/07/20 06:21:47;;;;;;;14.65;8.27;;;;;;;24.65;44.64;101165.44;5008209;28;20045;-75
2022/07/20 06:24:14;;;;;;;12.73;7.63;;;;;;;24.76;44.24;101159.69;5035189;28;20053;-75
2022/07/20 06:26:46;;;;;;;10.00;7.43;;;;;;;24.84;44.32;101158.84;5024464;28;20081;-75
2022/07/20 06:29:14;;;;;;;10.23;7.18;;;;;;;24.94;44.02;101162.19;5032083;28;20036;-76
2022/07/20 06:31:42;;;;;;;14.75;7.85;;;;;;;24.96;43.84;101161.03;5015240;28;20057;-75
2022/07/20 06:34:29;;;;;;;13.18;7.40;;;;;;;25.04;43.94;101168.25;5027640;28;20044;-76
2022/07/20 06:36:56;;;;;;;18.33;7.07;;;;;;;25.07;43.58;101175.97;5031044;28;20041;-75
2022/07/20 06:39:23;;;;;;;14.23;7.40;;;;;;;25.14;43.63;101173.50;5011479;28;20065;-76
2022/07/20 06:41:51;;;;;;;13.98;7.80;;;;;;;25.22;43.65;101174.31;5014318;28;20071;-75
2022/07/20 06:44:18;;;;;;;14.77;7.75;;;;;;;25.35;43.45;101178.28;5047092;28;20045;-76
2022/07/20 06:46:45;;;;;;;13.95;6.85;;;;;;;25.46;43.46;101184.16;5049309;28;20065;-75
2022/07/20 06:49:14;;;;;;;24.25;7.53;;;;;;;25.59;43.27;101185.47;5013549;28;20057;-76
2022/07/20 06:51:41;;;;;;;10.23;6.88;;;;;;;25.69;42.93;101183.41;5018399;28;20398;-75
2022/07/20 06:54:10;;;;;;;8.80;5.85;;;;;;;25.73;42.76;101199.06;5017869;28;20050;-76
2022/07/20 06:56:40;;;;;;;14.80;7.20;;;;;;;25.81;42.22;101191.97;5021427;28;20041;-75
2022/07/20 06:59:08;;;;;;;17.17;7.55;;;;;;;25.86;42.37;101186.91;5012645;28;20041;-75
2022/07/20 07:01:35;;;;;;;13.45;7.32;;;;;;;25.90;42.52;101190.91;5022104;28;20493;-75
2022/07/20 07:04:02;;;;;;;15.27;7.22;;;;;;;25.94;42.34;101189.56;5032885;28;20049;-75
2022/07/20 07:06:30;;;;;;;16.80;7.10;;;;;;;25.99;42.72;101189.84;5010649;28;20042;-76
2022/07/20 07:08:58;;;;;;;12.40;6.47;;;;;;;26.18;42.30;101189.38;5019767;28;20041;-76
2022/07/20 07:11:26;;;;;;;14.57;7.20;;;;;;;26.31;41.96;101175.31;5032944;28;20049;-74
2022/07/20 07:13:53;;;;;;;14.02;7.38;;;;;;;26.47;41.94;101179.75;5037451;28;20553;-73
2022/07/20 07:16:21;;;;;;;11.52;6.90;;;;;;;26.63;41.52;101179.63;5018956;28;20064;-75
2022/07/20 07:18:48;;;;;;;18.60;7.72;;;;;;;26.80;41.11;101172.22;5010283;28;20472;-75
2022/07/20 07:21:16;;;;;;;17.55;7.70;;;;;;;26.96;40.79;101173.91;5036718;28;20045;-75
2022/07/20 07:23:45;;;;;;;18.67;7.03;;;;;;;27.11;40.45;101171.25;5014881;28;20042;-75
2022/07/20 07:26:12;;;;;;;17.60;8.07;;;;;;;27.21;40.03;101175.38;5025118;28;20067;-76
2022/07/20 07:28:39;;;;;;;10.95;7.15;;;;;;;27.31;40.04;101171.56;5026698;28;20523;-74
2022/07/20 07:31:07;;;;;;;12.73;6.70;;;;;;;27.37;39.95;101174.34;5035152;28;20052;-75
2022/07/20 07:33:34;;;;;;;14.85;6.45;;;;;;;27.50;39.42;101173.69;5017740;28;20057;-76
2022/07/20 07:36:01;;;;;;;14.68;6.55;;;;;;;27.54;39.30;101175.00;5038026;28;20086;-75
2022/07/20 07:38:28;;;;;;;11.75;6.05;;;;;;;27.65;38.98;101176.34;5018045;28;20045;-76
2022/07/20 07:40:56;;;;;;;12.77;6.90;;;;;;;27.73;38.62;101179.84;5042657;28;20113;-76
2022/07/20 07:43:23;;;;;;;9.27;6.03;;;;;;;27.83;38.16;101173.28;5037574;28;20049;-75
2022/07/20 07:45:50;;;;;;;12.35;6.38;;;;;;;27.92;38.16;101178.41;5031185;28;20052;-75
2022/07/20 07:48:17;;;;;;;11.50;6.47;;;;;;;28.01;38.18;101185.38;5037921;28;20045;-74
2022/07/20 07:50:45;;;;;;;10.68;6.80;;;;;;;28.16;37.65;101193.44;5016056;28;20049;-74
2022/07/20 07:53:12;;;;;;;18.17;6.60;;;;;;;28.25;37.43;101178.75;5013847;28;20422;-75
2022/07/20 07:55:40;;;;;;;13.38;6.50;;;;;;;28.38;37.42;101174.53;5025875;28;20148;-75
2022/07/20 07:58:09;;;;;;;13.23;6.40;;;;;;;28.50;36.75;101179.25;5039555;28;20069;-75
2022/07/20 08:00:37;;;;;;;18.10;6.95;;;;;;;28.52;36.97;101177.19;5017413;28;20045;-74
2022/07/20 08:03:04;;;;;;;12.52;6.38;;;;;;;28.63;36.79;101172.25;5009613;28;20050;-74
2022/07/20 08:05:32;;;;;;;9.90;5.53;;;;;;;28.81;36.50;101161.75;5033390;28;20041;-75
2022/07/20 08:08:05;;;;;;;9.13;5.47;;;;;;;28.97;36.31;101174.22;5016088;28;20041;-75
2022/07/20 08:10:37;;;;;;;11.82;5.95;;;;;;;29.09;35.90;101167.22;5023110;28;20049;-75
2022/07/20 08:13:05;;;;;;;13.02;5.97;;;;;;;29.20;35.90;101172.06;5026877;28;20049;-76
2022/07/20 08:15:32;;;;;;;13.65;5.68;;;;;;;29.29;35.35;101177.34;5036508;28;20132;-76
2022/07/20 08:18:00;;;;;;;16.42;6.07;;;;;;;29.41;35.10;101178.47;5011772;28;20415;-76
2022/07/20 08:20:27;;;;;;;8.73;5.93;;;;;;;29.45;34.77;101174.28;5006836;28;20068;-76
2022/07/20 08:22:54;;;;;;;16.55;5.78;;;;;;;29.58;34.63;101177.09;5017765;28;20081;-75
2022/07/20 08:25:22;;;;;;;9.65;5.78;;;;;;;29.76;34.44;101180.09;5015402;28;20127;-76
2022/07/20 08:27:50;;;;;;;14.07;5.85;;;;;;;29.90;34.37;101181.00;5010261;28;20065;-74
2022/07/20 08:30:17;;;;;;;13.38;5.82;;;;;;;30.04;34.63;101175.59;5007016;28;20065;-75
2022/07/20 08:33:05;;;;;;;15.02;5.45;;;;;;;30.18;34.19;101183.59;5037460;28;20642;-75
2022/07/20 08:35:32;;;;;;;10.15;5.25;;;;;;;30.30;33.50;101183.81;5034544;28;20128;-76
2022/07/20 08:37:59;;;;;;;15.52;5.43;;;;;;;30.44;33.44;101181.94;5030098;28;20124;-75
2022/07/20 08:40:27;;;;;;;15.60;5.70;;;;;;;30.52;33.23;101182.59;5012069;28;20069;-74
2022/07/20 08:42:54;;;;;;;13.48;5.40;;;;;;;30.62;32.77;101182.19;5015973;28;20049;-75
2022/07/20 08:45:22;;;;;;;13.07;5.85;;;;;;;30.70;32.38;101184.69;5029335;28;20048;-74
2022/07/20 08:47:50;;;;;;;11.70;5.47;;;;;;;30.86;32.56;101185.34;5012765;28;20057;-75
2022/07/20 08:50:28;;;;;;;9.02;5.63;;;;;;;30.99;32.76;101180.72;5029740;28;20531;-75
2022/07/20 08:52:56;;;;;;;17.65;5.70;;;;;;;31.07;32.22;101176.94;5019184;28;20112;-75
2022/07/20 08:55:25;;;;;;;9.70;4.95;;;;;;;31.21;32.13;101175.88;5028108;28;20080;-75
2022/07/20 08:57:52;;;;;;;17.80;5.43;;;;;;;31.40;31.51;101181.50;5016341;28;20049;-75
2022/07/20 09:00:19;;;;;;;9.30;5.25;;;;;;;31.47;31.51;101177.69;5012552;28;20048;-76
2022/07/20 09:02:56;;;;;;;10.10;5.05;;;;;;;31.60;30.73;101176.81;5009987;28;20512;-76
2022/07/20 09:05:25;;;;;;;13.30;4.75;;;;;;;31.73;30.52;101173.19;5038223;28;20049;-75
2022/07/20 09:07:54;;;;;;;5.70;4.50;;;;;;;31.82;30.29;101173.78;5013977;28;20079;-75
2022/07/20 09:10:23;;;;;;;11.80;5.22;;;;;;;31.96;30.62;101169.97;5016775;28;20060;-76
2022/07/20 09:13:14;;;;;;;11.73;4.80;;;;;;;32.08;30.19;101167.41;5013782;28;20037;-75
2022/07/20 09:15:55;;;;;;;9.15;5.07;;;;;;;32.25;29.72;101168.53;5035892;28;20056;-76
2022/07/20 09:18:30;;;;;;;15.43;5.75;;;;;;;32.27;29.41;101161.78;5012607;28;20075;-74
2022/07/20 09:21:03;;;;;;;11.70;5.18;;;;;;;32.46;29.44;101164.63;4990603;28;1056864;-74
2022/07/20 09:23:52;;;;;;;13.48;5.70;;;;;;;32.54;29.50;101167.06;5035137;28;20139;-74
2022/07/20 09:26:20;;;;;;;10.07;4.97;;;;;;;32.65;29.12;101166.38;5014969;28;20050;-74
2022/07/20 09:28:49;;;;;;;8.05;4.63;;;;;;;32.82;28.78;101157.59;5043797;28;20434;-75
2022/07/20 09:31:18;;;;;;;7.20;4.70;;;;;;;33.00;28.25;101163.13;5012998;28;20053;-74
2022/07/20 09:34:09;;;;;;;12.02;5.40;;;;;;;33.16;27.39;101159.81;4998219;28;20519;-75
2022/07/20 09:36:38;;;;;;;13.43;4.90;;;;;;;33.23;26.74;101167.91;5017306;28;20059;-75
2022/07/20 09:39:09;;;;;;;12.57;4.88;;;;;;;33.31;26.40;101164.03;5011408;28;20493;-73
2022/07/20 09:41:39;;;;;;;7.55;4.10;;;;;;;33.40;26.32;101158.03;5034110;28;20041;-74
2022/07/20 09:44:08;;;;;;;6.90;4.10;;;;;;;33.48;26.48;101167.88;5017021;28;20364;-74
2022/07/20 09:46:37;;;;;;;7.80;3.92;;;;;;;33.65;26.25;101155.25;5013666;28;20056;-74
2022/07/20 09:49:09;;;;;;;13.98;4.32;;;;;;;33.72;25.52;101160.63;5025489;28;20049;-74
2022/07/20 09:51:49;;;;;;;5.32;3.75;;;;;;;33.81;25.30;101150.19;5013938;28;20052;-74
2022/07/20 09:54:18;;;;;;;14.98;4.50;;;;;;;33.87;25.07;101157.50;5024106;28;20419;-75
2022/07/20 09:56:47;;;;;;;9.27;4.00;;;;;;;34.09;25.25;101160.53;5010726;28;20480;-74
2022/07/20 09:59:15;;;;;;;10.80;4.38;;;;;;;34.18;24.58;101157.28;5012713;28;20045;-74
2022/07/20 10:01:48;;;;;;;9.52;4.53;;;;;;;34.32;24.39;101157.06;5030876;28;20053;-74
2022/07/20 10:04:16;;;;;;;9.77;3.65;;;;;;;34.26;24.14;101156.06;5016698;28;20518;-75
2022/07/20 10:06:47;;;;;;;11.50;4.00;;;;;;;34.35;23.97;101154.66;5008529;28;20530;-74
2022/07/20 10:09:15;;;;;;;6.97;4.22;;;;;;;34.50;23.87;101151.53;5004756;28;20044;-75
2022/07/20 10:11:43;;;;;;;8.40;4.22;;;;;;;34.56;24.08;101149.75;5037810;28;20071;-75
2022/07/20 10:14:11;;;;;;;12.95;4.07;;;;;;;34.57;23.21;101144.03;5020605;28;20044;-75
2022/07/20 10:16:49;;;;;;;6.10;4.35;;;;;;;34.67;23.40;101151.63;5014688;28;20415;-75
2022/07/20 10:19:17;;;;;;;5.18;3.22;;;;;;;34.76;23.38;101142.88;5014144;28;20045;-75
2022/07/20 10:21:48;;;;;;;12.85;3.80;;;;;;;34.96;23.39;101141.66;5012644;28;20073;-75
2022/07/20 10:24:25;;;;;;;11.40;4.00;;;;;;;34.99;23.22;101136.56;5010898;28;20046;-75
2022/07/20 10:27:15;;;;;;;8.50;3.70;;;;;;;34.96;22.94;101142.53;5016135;28;20052;-75
2022/07/20 10:29:45;;;;;;;8.65;3.70;;;;;;;35.15;22.55;101129.50;5026396;28;20408;-75
2022/07/20 10:32:20;;;;;;;12.90;4.03;;;;;;;35.17;22.82;101121.91;5021953;28;20054;-75
2022/07/20 10:35:01;;;;;;;11.18;4.38;;;;;;;35.37;22.90;101131.59;5008560;28;20057;-75
2022/07/20 10:37:39;;;;;;;9.25;3.55;;;;;;;35.53;22.60;101132.75;4999891;28;20073;-75
2022/07/20 10:40:11;;;;;;;10.98;4.03;;;;;;;35.71;22.46;101129.84;4996696;28;20424;-75
2022/07/20 10:42:43;;;;;;;9.15;3.90;;;;;;;35.71;21.91;101130.69;5027627;28;20141;-75
2022/07/20 10:45:16;;;;;;;7.28;3.78;;;;;;;35.82;21.85;101126.22;5010604;28;20058;-75
2022/07/20 10:47:46;;;;;;;9.82;3.78;;;;;;;35.92;21.87;101125.56;5010397;28;20662;-75
2022/07/20 10:50:23;;;;;;;9.10;4.25;;;;;;;35.95;21.01;101122.34;5009077;28;20424;-75
2022/07/20 10:52:53;;;;;;;9.80;4.25;;;;;;;36.08;20.88;101111.09;5015686;28;20056;-75
2022/07/20 10:55:36;;;;;;;7.78;3.78;;;;;;;36.30;20.96;101118.56;5011382;28;20053;-73
2022/07/20 10:58:03;;;;;;;8.20;3.83;;;;;;;36.38;20.93;101105.28;5023018;28;20107;-74
2022/07/20 11:00:35;;;;;;;10.60;4.25;;;;;;;36.51;20.44;101109.63;5020909;28;20058;-75
2022/07/20 11:03:12;;;;;;;5.78;3.53;;;;;;;36.57;19.38;101111.38;5010488;28;20073;-75
2022/07/20 11:05:40;;;;;;;6.10;3.95;;;;;;;36.63;19.97;101113.09;5009874;28;20062;-75
2022/07/20 11:08:09;;;;;;;8.20;3.80;;;;;;;36.71;19.60;101100.88;5010180;28;20068;-75
2022/07/20 11:10:37;;;;;;;9.13;4.25;;;;;;;36.66;19.40;101104.38;5010896;28;20153;-75
2022/07/20 11:13:06;;;;;;;6.03;3.55;;;;;;;36.82;19.76;101099.91;5017236;28;20033;-74
2022/07/20 11:15:47;;;;;;;6.63;3.30;;;;;;;37.04;19.70;101102.72;5029007;28;20049;-74
2022/07/20 11:18:20;;;;;;;8.93;3.80;;;;;;;37.09;19.09;101097.28;4994834;28;20140;-75
2022/07/20 11:21:08;;;;;;;8.75;3.90;;;;;;;37.18;19.11;101104.00;5044791;28;20057;-75
2022/07/20 11:23:47;;;;;;;8.20;3.70;;;;;;;37.37;18.69;101093.50;5031574;28;20053;-75
2022/07/20 11:26:17;;;;;;;5.03;3.60;;;;;;;37.65;19.05;101097.16;5012726;28;20046;-75
2022/07/20 11:28:49;;;;;;;8.93;3.17;;;;;;;37.79;18.24;101105.81;5025213;28;20041;-75
2022/07/20 11:31:20;;;;;;;8.52;3.75;;;;;;;37.86;18.07;101090.78;5028453;28;20372;-75
2022/07/20 11:33:49;;;;;;;9.05;4.70;;;;;;;37.97;18.02;101092.53;5013862;28;20045;-75